createdAt,value
2018-12-13T00:00:18.671Z,101377.38
2018-12-13T00:02:49.154Z,101377.41
2018-12-13T00:05:30.146Z,101371.45
2018-12-13T00:08:10.963Z,101375.02
2018-12-13T00:10:52.156Z,101373.70
2018-12-13T00:13:23.568Z,101369.34
2018-12-13T00:15:53.672Z,101365.02
2018-12-13T00:18:23.701Z,101362.61
2018-12-13T00:20:53.853Z,101360.42
2018-12-13T00:23:25.838Z,101358.79
2018-12-13T00:25:55.883Z,101347.62
2018-12-13T00:28:30.575Z,101356.34
2018-12-13T00:31:01.894Z,101353.37
2018-12-13T00:33:33.145Z,101360.45
2018-12-13T00:36:14.725Z,101353.08
2018-12-13T00:38:55.958Z,101356.64
2018-12-13T00:41:27.382Z,101350.91
2018-12-13T00:44:01.407Z,101351.44
2018-12-13T00:46:42.185Z,101353.37
2018-12-13T00:49:23.413Z,101349.28
2018-12-13T00:52:00.074Z,101351.72
2018-12-13T00:54:30.194Z,101345.45
2018-12-13T00:57:05.359Z,101339.74
2018-12-13T00:59:46.327Z,101346.02
2018-12-13T01:02:17.926Z,101346.84
2018-12-13T01:04:59.529Z,101343.85
2018-12-13T01:07:40.596Z,101341.11
2018-12-13T01:10:21.650Z,101337.04
2018-12-13T01:12:57.936Z,101334.59
2018-12-13T01:15:38.755Z,101342.50
2018-12-13T01:18:19.838Z,101344.11
2018-12-13T01:20:56.251Z,101337.59
2018-12-13T01:23:27.443Z,101333.77
2018-12-13T01:26:01.429Z,101328.30
2018-12-13T01:28:42.069Z,101328.56
2018-12-13T01:31:23.059Z,101326.91
2018-12-13T01:33:54.721Z,101324.45
2018-12-13T01:36:31.069Z,101320.36
2018-12-13T01:39:07.094Z,101330.70
2018-12-13T01:41:48.613Z,101298.23
2018-12-13T01:44:20.073Z,101320.86
2018-12-13T01:46:54.996Z,101325.22
2018-12-13T01:49:30.515Z,101325.74
2018-12-13T01:52:02.441Z,101322.42
2018-12-13T01:54:36.383Z,101328.94
2018-12-13T01:57:17.183Z,101328.37
2018-12-13T01:59:46.810Z,101324.83
2018-12-13T02:02:18.912Z,101315.80
2018-12-13T02:04:50.161Z,101316.06
2018-12-13T02:07:22.402Z,101315.77
2018-12-13T02:10:01.085Z,101307.30
2018-12-13T02:12:32.839Z,101304.00
2018-12-13T02:15:07.874Z,101306.15
2018-12-13T02:17:48.541Z,101303.90
2018-12-13T02:20:23.060Z,101298.68
2018-12-13T02:22:54.877Z,101300.30
2018-12-13T02:25:35.502Z,101246.16
2018-12-13T02:28:09.779Z,101311.33
2018-12-13T02:30:45.235Z,101253.41
2018-12-13T02:33:17.109Z,101296.83
2018-12-13T02:35:58.655Z,101298.99
2018-12-13T02:38:34.298Z,101300.31
2018-12-13T02:41:15.240Z,101241.88
2018-12-13T02:43:47.875Z,101302.16
2018-12-13T02:46:20.165Z,101297.53
2018-12-13T02:49:01.294Z,101294.25
2018-12-13T02:51:42.039Z,101293.94
2018-12-13T02:54:13.872Z,101294.18
2018-12-13T02:56:55.449Z,101290.91
2018-12-13T02:59:29.816Z,101282.75
2018-12-13T03:02:01.044Z,101280.27
2018-12-13T03:04:32.966Z,101281.63
2018-12-13T03:07:14.393Z,101275.36
2018-12-13T03:09:45.722Z,101269.36
2018-12-13T03:12:27.154Z,101262.02
2018-12-13T03:15:01.603Z,101261.45
2018-12-13T03:17:32.912Z,101254.91
2018-12-13T03:20:07.089Z,101266.05
2018-12-13T03:22:39.101Z,101258.41
2018-12-13T03:25:10.333Z,101253.23
2018-12-13T03:27:40.491Z,101250.78
2018-12-13T03:30:18.370Z,101247.79
2018-12-13T03:32:49.819Z,101243.44
2018-12-13T03:35:19.943Z,101245.88
2018-12-13T03:37:50.034Z,101240.16
2018-12-13T03:40:26.788Z,101237.16
2018-12-13T03:43:01.113Z,101231.45
2018-12-13T03:45:35.118Z,101231.97
2018-12-13T03:48:06.439Z,101237.13
2018-12-13T03:50:41.319Z,101234.13
2018-12-13T03:53:15.531Z,101232.77
2018-12-13T03:55:49.705Z,101240.64
2018-12-13T03:58:19.220Z,101239.00
2018-12-13T04:00:56.494Z,101243.63
2018-12-13T04:03:33.017Z,101236.56
2018-12-13T04:06:04.732Z,101230.33
2018-12-13T04:08:49.183Z,101233.05
2018-12-13T04:11:18.836Z,101226.26
2018-12-13T04:13:50.983Z,101222.19
2018-12-13T04:16:33.728Z,101228.42
2018-12-13T04:19:03.534Z,101225.42
2018-12-13T04:21:45.064Z,101227.62
2018-12-13T04:24:17.241Z,101168.12
2018-12-13T04:26:46.833Z,101216.75
2018-12-13T04:29:18.847Z,101211.32
2018-12-13T04:31:50.065Z,101211.59
2018-12-13T04:34:22.102Z,101205.89
2018-12-13T04:36:57.023Z,101199.37
2018-12-13T04:39:28.331Z,101198.55
2018-12-13T04:42:09.821Z,101147.20
2018-12-13T04:44:44.074Z,101201.53
2018-12-13T04:47:15.530Z,101199.66
2018-12-13T04:49:50.373Z,101199.94
2018-12-13T04:52:21.718Z,101190.95
2018-12-13T04:55:08.927Z,101142.09
2018-12-13T04:57:50.391Z,101191.51
2018-12-13T05:00:20.149Z,101193.94
2018-12-13T05:02:52.166Z,101183.08
2018-12-13T05:05:23.561Z,101180.36
2018-12-13T05:07:58.110Z,101189.31
2018-12-13T05:10:47.184Z,101180.05
2018-12-13T05:13:22.665Z,101137.42
2018-12-13T05:15:52.748Z,101179.25
2018-12-13T05:18:34.274Z,101169.70
2018-12-13T05:21:08.654Z,101171.31
2018-12-13T05:23:40.881Z,101160.45
2018-12-13T05:26:22.453Z,101163.96
2018-12-13T05:28:54.149Z,101165.87
2018-12-13T05:31:34.836Z,101163.41
2018-12-13T05:34:05.633Z,101164.20
2018-12-13T05:36:42.318Z,101165.00
2018-12-13T05:42:14.279Z,101100.58
2018-12-13T05:50:49.942Z,101173.91
2018-12-13T06:08:34.895Z,101155.86
2018-12-13T06:56:14.262Z,101167.48
2018-12-13T07:07:48.878Z,101175.34
2018-12-13T08:27:43.654Z,101205.17
2018-12-13T08:30:13.269Z,101215.28
2018-12-13T08:32:45.349Z,101207.69
2018-12-13T08:35:26.756Z,101210.48
2018-12-13T08:38:08.765Z,101212.72
2018-12-13T08:40:40.537Z,101217.63
2018-12-13T08:43:10.026Z,101215.23
2018-12-13T08:45:51.353Z,101210.66
2018-12-13T08:48:33.422Z,101206.90
2018-12-13T08:51:03.137Z,101204.49
2018-12-13T08:53:38.038Z,101205.08
2018-12-13T08:56:18.786Z,101145.67
2018-12-13T08:58:53.175Z,101205.69
2018-12-13T09:01:34.820Z,101200.56
2018-12-13T09:04:06.452Z,101201.70
2018-12-13T09:06:41.308Z,101203.08
2018-12-13T09:09:22.088Z,101199.30
2018-12-13T09:11:52.033Z,101199.08
2018-12-13T09:14:24.227Z,101140.75
2018-12-13T09:16:58.809Z,101193.14
2018-12-13T09:19:39.585Z,101196.43
2018-12-13T09:22:20.435Z,101195.64
2018-12-13T09:24:51.856Z,101189.16
2018-12-13T09:27:32.538Z,101184.52
2018-12-13T09:33:05.059Z,101194.92
2018-12-13T09:35:45.843Z,101201.73
2018-12-13T09:38:27.457Z,101202.02
2018-12-13T09:41:08.914Z,101197.94
2018-12-13T09:43:40.546Z,101202.85
2018-12-13T09:46:21.893Z,101211.86
2018-12-13T09:49:02.907Z,101203.72
2018-12-13T09:51:44.010Z,101208.35
2018-12-13T09:54:15.653Z,101203.45
2018-12-13T09:56:56.306Z,101203.98
2018-12-13T09:59:37.497Z,101200.17
2018-12-13T10:02:18.442Z,101204.26
2018-12-13T10:04:53.606Z,101201.80
2018-12-13T10:07:34.542Z,101192.53
2018-12-13T10:10:16.272Z,101186.54
2018-12-13T10:12:50.744Z,101176.73
2018-12-13T10:15:32.176Z,101184.08
2018-12-13T10:18:01.864Z,101174.79
2018-12-13T10:20:43.298Z,101169.59
2018-12-13T10:23:15.028Z,101164.39
2018-12-13T10:25:49.846Z,101157.83
2018-12-13T10:28:30.831Z,101151.52
2018-12-13T10:31:06.435Z,101150.41
2018-12-13T10:33:41.405Z,101149.02
2018-12-13T10:36:16.920Z,101146.03
2018-12-13T10:38:45.215Z,101142.45
2018-12-13T10:41:21.719Z,101140.26
2018-12-13T10:43:53.122Z,101145.16
2018-12-13T10:46:27.131Z,101140.50
2018-12-13T10:52:08.114Z,101139.94
2018-12-13T10:54:37.804Z,101135.31
2018-12-13T10:57:12.712Z,101145.40
2018-12-13T10:59:53.544Z,101134.48
2018-12-13T11:02:30.277Z,101139.64
2018-12-13T11:05:04.747Z,101135.02
2018-12-13T11:07:34.903Z,101127.09
2018-12-13T11:10:16.513Z,101136.91
2018-12-13T11:12:57.609Z,101132.52
2018-12-13T11:15:31.971Z,101128.70
2018-12-13T11:18:12.704Z,101128.13
2018-12-13T11:20:53.716Z,101126.73
2018-12-13T11:23:25.365Z,101120.41
2018-12-13T11:25:55.483Z,101115.21
2018-12-13T11:28:42.852Z,101113.28
2018-12-13T11:31:24.194Z,101114.61
2018-12-13T11:33:56.022Z,101106.68
2018-12-13T11:36:26.130Z,101109.38
2018-12-13T11:38:56.053Z,101097.34
2018-12-13T11:41:36.882Z,101104.17
2018-12-13T11:44:08.686Z,101096.23
2018-12-13T11:46:40.038Z,101089.67
2018-12-13T11:49:20.666Z,101082.00
2018-12-13T11:52:01.568Z,101069.41
2018-12-13T11:54:42.519Z,101075.97
2018-12-13T11:57:23.629Z,101083.06
2018-12-13T12:00:04.810Z,101083.86
2018-12-13T12:02:36.440Z,101083.02
2018-12-13T12:05:17.954Z,101080.83
2018-12-13T12:07:59.248Z,101077.82
2018-12-13T12:10:28.937Z,101069.89
2018-12-13T12:13:00.726Z,101060.33
2018-12-13T12:15:42.306Z,101062.48
2018-12-13T12:18:16.534Z,101065.48
2018-12-13T12:20:48.653Z,101051.24
2018-12-13T12:23:20.697Z,101047.94
2018-12-13T12:26:02.026Z,101040.78
2018-12-13T12:28:31.590Z,101038.05
2018-12-13T12:31:01.617Z,101041.35
2018-12-13T12:33:33.784Z,101038.05
2018-12-13T12:36:14.455Z,101038.84
2018-12-13T12:38:55.761Z,101035.27
2018-12-13T12:41:25.227Z,101031.95
2018-12-13T12:43:57.188Z,101021.27
2018-12-13T12:46:31.162Z,101032.46
2018-12-13T12:49:11.814Z,100969.63
2018-12-13T12:51:52.878Z,101012.44
2018-12-13T12:54:27.391Z,100964.91
2018-12-13T12:57:01.450Z,101013.27
2018-12-13T12:59:55.927Z,101012.17
2018-12-13T13:02:31.501Z,101015.73
2018-12-13T13:05:01.676Z,101012.17
2018-12-13T13:07:36.494Z,101001.81
2018-12-13T13:10:10.476Z,101003.17
2018-12-13T13:12:41.870Z,101002.08
2018-12-13T13:15:22.658Z,101001.81
2018-12-13T13:17:52.382Z,100992.78
2018-12-13T13:20:26.321Z,100995.81
2018-12-13T13:22:57.746Z,100988.72
2018-12-13T13:25:39.313Z,100991.98
2018-12-13T13:28:20.454Z,100993.34
2018-12-13T13:30:55.544Z,100996.60
2018-12-13T13:33:26.979Z,101002.33
2018-12-13T13:35:59.026Z,101003.96
2018-12-13T13:38:30.233Z,100996.28
2018-12-13T13:41:11.668Z,100995.45
2018-12-13T13:43:41.225Z,100998.17
2018-12-13T13:46:16.086Z,100992.70
2018-12-13T13:48:56.955Z,100995.70
2018-12-13T13:51:38.026Z,100993.77
2018-12-13T13:54:09.970Z,100988.30
2018-12-13T13:56:50.660Z,100984.50
2018-12-13T13:59:20.640Z,100984.23
2018-12-13T14:02:01.425Z,100980.98
2018-12-13T14:04:42.537Z,100980.46
2018-12-13T14:07:12.245Z,100976.36
2018-12-13T14:09:42.401Z,100978.57
2018-12-13T14:12:23.206Z,100928.91
2018-12-13T14:15:04.549Z,100986.25
2018-12-13T14:17:34.489Z,100984.88
2018-12-13T14:20:06.348Z,100988.72
2018-12-13T14:22:37.917Z,100989.00
2018-12-13T14:25:09.202Z,101001.83
2018-12-13T14:27:50.509Z,101001.31
2018-12-13T14:30:25.916Z,101005.15
2018-12-13T14:33:00.120Z,101005.73
2018-12-13T14:35:34.971Z,101006.05
2018-12-13T14:38:15.842Z,101003.63
2018-12-13T14:40:57.006Z,101010.78
2018-12-13T14:43:33.847Z,101012.46
2018-12-13T14:46:05.390Z,101016.08
2018-12-13T14:48:50.853Z,101005.52
2018-12-13T14:51:20.586Z,101007.47
2018-12-13T14:53:50.605Z,101017.30
2018-12-13T14:56:24.630Z,101016.02
2018-12-13T14:58:58.816Z,101021.77
2018-12-13T15:01:39.758Z,101031.62
2018-12-13T15:04:11.476Z,101028.94
2018-12-13T15:06:53.035Z,101025.98
2018-12-13T15:09:24.985Z,101030.13
2018-12-13T15:11:59.909Z,101028.53
2018-12-13T15:14:34.028Z,101021.48
2018-12-13T15:17:05.291Z,101034.63
2018-12-13T15:19:46.106Z,101040.95
2018-12-13T15:22:27.228Z,101044.81
2018-12-13T15:25:08.261Z,101055.19
2018-12-13T15:27:49.414Z,101046.50
2018-12-13T15:30:30.494Z,101046.80
2018-12-13T15:33:00.134Z,101050.11
2018-12-13T15:35:41.695Z,101047.14
2018-12-13T15:38:13.251Z,101040.87
2018-12-13T15:40:48.162Z,101043.90
2018-12-13T15:43:20.325Z,101049.11
2018-12-13T15:45:58.327Z,101049.42
2018-12-13T15:48:39.174Z,101055.13
2018-12-13T15:51:20.028Z,101056.80
2018-12-13T15:53:51.738Z,101057.37
2018-12-13T15:56:33.142Z,101061.47
2018-12-13T15:59:14.058Z,101066.39
2018-12-13T16:01:55.202Z,101064.23
2018-12-13T16:04:26.662Z,101069.42
2018-12-13T16:07:00.957Z,101071.05
2018-12-13T16:09:41.886Z,101067.26
2018-12-13T16:12:23.018Z,101066.96
2018-12-13T16:14:57.324Z,101065.34
2018-12-13T16:17:28.598Z,101065.34
2018-12-13T16:20:10.245Z,101015.00
2018-12-13T16:22:41.792Z,101065.09
2018-12-13T16:25:22.471Z,101062.08
2018-12-13T16:28:03.537Z,101070.77
2018-12-13T16:30:41.690Z,101066.98
2018-12-13T16:33:13.110Z,101068.34
2018-12-13T16:35:44.387Z,101065.88
2018-12-13T16:38:14.598Z,101068.88
2018-12-13T16:40:55.323Z,101074.86
2018-12-13T16:43:29.793Z,101076.45
2018-12-13T16:46:01.187Z,101072.64
2018-12-13T16:48:42.697Z,101071.81
2018-12-13T16:51:23.675Z,101010.02
2018-12-13T16:53:55.506Z,101012.72
2018-12-13T16:56:36.957Z,101071.53
2018-12-13T16:59:17.668Z,101067.16
2018-12-13T17:01:58.768Z,101072.03
2018-12-13T17:04:30.189Z,101070.39
2018-12-13T17:07:08.275Z,101077.45
2018-12-13T17:09:42.427Z,101067.94
2018-12-13T17:12:23.294Z,101016.98
2018-12-13T17:14:53.065Z,101072.83
2018-12-13T17:17:27.972Z,101076.34
2018-12-13T17:20:08.693Z,101072.29
2018-12-13T17:22:40.497Z,101084.52
2018-12-13T17:25:22.141Z,101080.44
2018-12-13T17:28:03.207Z,101078.83
2018-12-13T17:30:44.074Z,101079.38
2018-12-13T17:33:15.574Z,101072.30
2018-12-13T17:35:59.103Z,101073.67
2018-12-13T17:41:15.887Z,101052.17
2018-12-13T17:43:47.903Z,101078.86
2018-12-13T17:49:36.117Z,101066.91
2018-12-13T17:52:16.963Z,101072.35
2018-12-13T17:54:57.980Z,101072.35
2018-12-13T17:57:39.288Z,101015.42
2018-12-13T18:00:20.287Z,101019.78
2018-12-13T18:02:52.009Z,101075.59
2018-12-13T18:05:22.066Z,101077.50
2018-12-13T18:08:02.783Z,101082.09
2018-12-13T18:10:43.860Z,101082.38
2018-12-13T18:13:15.762Z,101084.30
2018-12-13T18:15:57.271Z,101086.73
2018-12-13T18:18:31.573Z,101090.81
2018-12-13T18:21:12.395Z,101091.91
2018-12-13T18:23:43.722Z,101095.70
2018-12-13T18:26:15.770Z,101084.28
2018-12-13T18:28:57.179Z,101042.55
2018-12-13T18:31:38.185Z,101086.73
2018-12-13T18:34:09.974Z,101085.89
2018-12-13T18:36:51.566Z,101089.70
2018-12-13T18:39:32.458Z,101086.43
2018-12-13T18:42:06.730Z,101086.98
2018-12-13T18:44:42.093Z,101092.15
2018-12-13T18:47:12.051Z,101088.33
2018-12-13T18:49:53.607Z,101092.67
2018-12-13T18:52:25.270Z,101096.23
2018-12-13T18:55:06.652Z,101043.65
2018-12-13T18:57:47.531Z,101091.05
2018-12-13T19:00:22.820Z,101098.13
2018-12-13T19:02:54.162Z,101085.36
2018-12-13T19:05:24.335Z,101087.80
2018-12-13T19:10:58.664Z,101086.44
2018-12-13T19:13:30.417Z,101032.77
2018-12-13T19:16:00.486Z,101092.72
2018-12-13T19:18:31.813Z,101098.42
2018-12-13T19:21:12.591Z,101092.98
2018-12-13T19:23:46.893Z,101093.53
2018-12-13T19:26:20.904Z,101102.25
2018-12-13T19:28:55.141Z,101109.31
2018-12-13T19:31:36.031Z,101109.59
2018-12-13T19:34:07.597Z,101101.44
2018-12-13T19:36:48.376Z,101063.78
2018-12-13T19:39:22.595Z,101122.67
2018-12-13T19:41:56.582Z,101117.75
2018-12-13T19:44:28.171Z,101122.11
2018-12-13T19:47:04.901Z,101120.75
2018-12-13T19:49:45.813Z,101056.17
2018-12-13T19:52:21.462Z,101104.18
2018-12-13T19:55:03.111Z,101112.31
2018-12-13T19:57:44.171Z,101057.25
2018-12-13T20:00:25.049Z,101114.19
2018-12-13T20:02:56.737Z,101120.70
2018-12-13T20:05:37.428Z,101060.16
2018-12-13T20:08:11.843Z,101123.11
2018-12-13T20:10:43.432Z,101125.00
2018-12-13T20:13:24.943Z,101121.73
2018-12-13T20:15:54.533Z,101127.16
2018-12-13T20:18:30.424Z,101126.61
2018-12-13T20:21:11.215Z,101119.28
2018-12-13T20:23:42.694Z,101120.11
2018-12-13T20:26:14.860Z,101119.28
2018-12-13T20:28:49.014Z,101125.27
2018-12-13T20:31:23.025Z,101124.97
2018-12-13T20:33:54.514Z,101125.81
2018-12-13T20:36:39.771Z,101119.78
2018-12-13T20:39:11.666Z,101123.09
2018-12-13T20:41:52.355Z,101124.16
2018-12-13T20:44:24.217Z,101067.48
2018-12-13T20:46:58.919Z,101115.23
2018-12-13T20:49:39.663Z,101124.48
2018-12-13T20:52:20.641Z,101128.84
2018-12-13T20:54:50.379Z,101133.75
2018-12-13T20:57:31.884Z,101132.11
2018-12-13T21:00:08.722Z,101134.84
2018-12-13T21:02:38.521Z,101143.83
2018-12-13T21:05:08.572Z,101137.03
2018-12-13T21:07:38.526Z,101137.05
2018-12-13T21:10:10.721Z,101100.53
2018-12-13T21:12:45.306Z,101147.97
2018-12-13T21:15:26.210Z,101090.46
2018-12-13T21:17:57.465Z,101119.91
2018-12-13T21:20:29.720Z,101146.09
2018-12-13T21:23:01.789Z,101148.80
2018-12-13T21:25:31.191Z,101153.98
2018-12-13T21:28:05.307Z,101154.81
2018-12-13T21:33:43.448Z,101162.97
2018-12-13T21:42:27.850Z,101149.64
2018-12-13T21:44:59.787Z,101149.91
2018-12-13T21:47:38.602Z,101146.38
2018-12-13T21:50:19.547Z,101089.44
2018-12-13T21:52:53.848Z,101138.79
2018-12-13T21:55:27.859Z,101147.23
2018-12-13T22:01:06.401Z,101138.53
2018-12-13T22:03:41.222Z,101146.44
2018-12-13T22:06:21.978Z,101079.41
2018-12-13T22:08:56.665Z,101137.98
2018-12-13T22:11:30.644Z,101131.20
2018-12-13T22:14:01.900Z,101129.30
2018-12-13T22:16:42.657Z,101137.47
2018-12-13T22:19:12.375Z,101128.23
2018-12-13T22:21:43.590Z,101137.76
2018-12-13T22:24:15.707Z,101142.12
2018-12-13T22:26:45.561Z,101141.03
2018-12-13T22:29:22.191Z,101142.94
2018-12-13T22:32:03.234Z,101137.22
2018-12-13T22:34:33.080Z,101141.87
2018-12-13T22:37:14.538Z,101141.59
2018-12-13T22:39:48.946Z,101143.52
2018-12-13T22:45:26.011Z,101147.59
2018-12-13T22:48:00.551Z,101161.22
2018-12-13T22:50:31.847Z,101147.88
2018-12-13T22:53:03.912Z,101147.88
2018-12-13T22:55:44.582Z,101136.41
2018-12-13T22:58:16.326Z,101137.77
2018-12-13T23:00:51.244Z,101140.79
2018-12-13T23:03:22.668Z,101138.06
2018-12-13T23:05:52.500Z,101131.80
2018-12-13T23:08:33.732Z,101148.41
2018-12-13T23:11:05.449Z,101141.59
2018-12-13T23:13:47.088Z,101138.60
2018-12-13T23:16:19.102Z,101141.04
2018-12-13T23:22:07.566Z,101140.48
2018-12-13T23:24:37.055Z,101141.59
2018-12-13T23:27:11.862Z,101138.87
2018-12-13T23:29:52.554Z,101141.05
2018-12-13T23:32:26.819Z,101141.05
2018-12-13T23:35:00.821Z,101139.13
2018-12-13T23:37:42.389Z,101136.14
2018-12-13T23:40:16.702Z,101137.52
2018-12-13T23:42:58.112Z,101135.31
2018-12-13T23:45:32.627Z,101143.23
2018-12-13T23:48:06.651Z,101136.95
2018-12-13T23:50:47.391Z,101135.05
2018-12-13T23:53:24.015Z,101133.69
2018-12-13T23:55:56.231Z,101126.32
2018-12-13T23:58:37.723Z,101132.86
